Time;durP1;ratioP1;P1;durP2;ratioP2;P2;SDS_P1;SDS_P2;PMS_P1;PMS_P2;Temp;Humidity;BMP_temperature;BMP_pressure;BME280_temperature;BME280_humidity;BME280_pressure;Samples;Min_cycle;Max_cycle;Signal;HPM_P1;HPM_P2
2021/09/09 00:02:17;;;;;;;10.40;4.47;;;;;;;14.63;56.76;102003.94;6123575;23;20233;-59
2021/09/09 00:04:42;;;;;;;9.50;4.63;;;;;;;14.47;56.50;101977.94;6124274;23;20168;-58
2021/09/09 00:07:08;;;;;;;10.30;4.77;;;;;;;14.92;56.51;102052.44;6124433;23;20152;-59
2021/09/09 00:09:33;;;;;;;11.93;5.07;;;;;;;15.00;56.41;102064.22;6123757;23;20494;-58
2021/09/09 00:11:59;;;;;;;14.07;4.83;;;;;;;14.92;56.35;102048.84;6124150;23;20153;-58
2021/09/09 00:14:25;;;;;;;14.53;5.03;;;;;;;14.88;56.29;102048.13;6123651;23;20161;-59
2021/09/09 00:16:50;;;;;;;13.37;4.07;;;;;;;14.80;56.31;102024.34;6124187;23;20183;-58
2021/09/09 00:19:16;;;;;;;13.17;5.07;;;;;;;14.84;56.38;102030.63;6124209;23;20592;-59
2021/09/09 00:21:41;;;;;;;8.03;4.17;;;;;;;14.83;56.52;102048.59;6123520;23;20232;-59
2021/09/09 00:24:07;;;;;;;8.83;4.67;;;;;;;14.78;56.32;102054.69;6124385;23;20165;-58
2021/09/09 00:26:33;;;;;;;10.03;4.47;;;;;;;14.70;56.59;102051.22;6122265;23;20164;-59
2021/09/09 00:28:58;;;;;;;10.57;5.50;;;;;;;14.49;56.38;102020.16;6124027;23;20156;-58
2021/09/09 00:31:24;;;;;;;7.73;4.17;;;;;;;14.66;56.80;102042.13;6123533;23;20158;-58
2021/09/09 00:33:49;;;;;;;7.93;4.23;;;;;;;14.72;56.55;102048.81;6123559;23;20478;-58
2021/09/09 00:36:15;;;;;;;8.67;4.17;;;;;;;14.76;56.60;102043.94;6124078;23;20152;-58
2021/09/09 00:38:40;;;;;;;9.50;4.33;;;;;;;14.79;56.70;102048.69;6122979;23;20613;-59
2021/09/09 00:41:06;;;;;;;7.90;4.80;;;;;;;14.67;56.74;102035.34;6123533;23;20650;-58
2021/09/09 00:43:32;;;;;;;20.07;5.50;;;;;;;14.44;56.87;102010.25;6123687;23;20160;-58
2021/09/09 00:45:57;;;;;;;15.63;5.50;;;;;;;14.59;56.76;102044.25;6124416;23;20212;-59
2021/09/09 00:48:24;;;;;;;11.43;5.13;;;;;;;14.55;56.63;102046.34;6123793;23;20155;-58
2021/09/09 00:50:50;;;;;;;15.83;5.20;;;;;;;14.47;57.01;102050.47;6123221;23;20178;-59
2021/09/09 00:53:18;;;;;;;8.87;4.57;;;;;;;14.48;56.94;102043.66;6123778;23;20154;-59
2021/09/09 00:55:44;;;;;;;10.87;5.33;;;;;;;14.51;57.19;102056.78;6123988;23;20238;-59
2021/09/09 00:58:10;;;;;;;9.97;4.57;;;;;;;14.13;57.23;101986.47;6124245;23;20237;-59
2021/09/09 01:00:37;;;;;;;11.67;5.20;;;;;;;14.45;57.23;102053.66;6123200;23;20626;-59
2021/09/09 01:03:03;;;;;;;11.87;5.60;;;;;;;14.28;57.64;102037.22;6123548;23;20553;-58
2021/09/09 01:05:28;;;;;;;10.33;5.10;;;;;;;14.37;57.54;102059.78;6123282;23;20161;-58
2021/09/09 01:07:54;;;;;;;11.07;5.40;;;;;;;14.11;57.76;102024.34;6123877;23;20215;-58
2021/09/09 01:10:19;;;;;;;10.73;5.83;;;;;;;13.98;58.00;102010.22;6123369;23;20500;-59
2021/09/09 01:12:45;;;;;;;9.80;5.23;;;;;;;14.33;58.40;102061.84;6123651;23;20148;-58
2021/09/09 01:15:11;;;;;;;9.47;4.63;;;;;;;14.29;56.86;102059.13;6123490;23;20157;-59
2021/09/09 01:17:36;;;;;;;8.13;5.10;;;;;;;14.20;57.36;102044.91;6123453;23;20250;-58
2021/09/09 01:20:03;;;;;;;10.23;4.93;;;;;;;13.85;57.04;102000.88;6123362;23;20155;-59
2021/09/09 01:22:30;;;;;;;14.47;5.60;;;;;;;14.29;57.46;102064.69;6123323;23;20215;-58
2021/09/09 01:24:56;;;;;;;16.67;5.63;;;;;;;14.07;56.98;102010.47;6123528;23;20508;-58
2021/09/09 01:27:22;;;;;;;10.77;5.10;;;;;;;14.29;56.40;102038.81;6123342;23;20235;-59
2021/09/09 01:29:48;;;;;;;7.37;4.53;;;;;;;14.25;56.80;102013.00;6122877;23;20627;-58
2021/09/09 01:32:32;;;;;;;15.60;5.43;;;;;;;14.47;57.08;102045.69;6121998;23;20173;-58
2021/09/09 01:34:57;;;;;;;9.20;4.93;;;;;;;14.79;56.68;102064.63;6123057;23;20139;-59
2021/09/09 01:37:23;;;;;;;10.37;4.70;;;;;;;14.89;56.63;102063.63;6123244;23;20155;-58
2021/09/09 01:39:49;;;;;;;11.73;4.90;;;;;;;14.95;55.94;102062.72;6122696;23;20632;-58
2021/09/09 01:42:14;;;;;;;10.40;4.70;;;;;;;15.01;55.38;102065.81;6121731;23;20184;-58
2021/09/09 01:44:40;;;;;;;9.70;4.80;;;;;;;15.02;55.21;102068.16;6123308;23;20159;-59
2021/09/09 01:47:06;;;;;;;14.17;4.70;;;;;;;15.03;54.72;102061.38;6123442;23;20161;-58
2021/09/09 01:49:32;;;;;;;15.93;5.70;;;;;;;15.07;55.20;102064.88;6123187;23;20151;-58
2021/09/09 01:51:58;;;;;;;12.40;4.57;;;;;;;15.09;54.53;102064.44;6123075;23;20151;-58
2021/09/09 01:54:24;;;;;;;9.30;4.70;;;;;;;15.12;54.87;102066.41;6122874;23;20158;-58
2021/09/09 01:56:49;;;;;;;9.97;4.80;;;;;;;15.14;55.06;102067.53;6123088;23;20151;-58
2021/09/09 01:59:15;;;;;;;13.23;4.60;;;;;;;15.19;54.77;102069.03;6123308;23;20157;-58
2021/09/09 02:01:41;;;;;;;10.67;5.17;;;;;;;14.93;54.79;102036.44;6122288;23;20263;-60
2021/09/09 02:04:07;;;;;;;13.07;4.67;;;;;;;14.91;54.65;102025.72;6123315;23;20157;-59
2021/09/09 02:06:34;;;;;;;10.27;4.87;;;;;;;15.21;54.62;102075.00;6122921;23;20186;-58
2021/09/09 02:09:00;;;;;;;12.77;4.70;;;;;;;15.21;54.74;102075.78;6123538;23;20211;-59
2021/09/09 02:11:26;;;;;;;13.17;4.80;;;;;;;14.99;54.74;102034.72;6122693;23;20157;-59
2021/09/09 02:13:52;;;;;;;7.77;4.07;;;;;;;15.22;54.53;102071.75;6122895;23;20573;-59
2021/09/09 02:16:18;;;;;;;6.83;4.03;;;;;;;14.98;54.64;102031.16;6123037;23;20516;-59
2021/09/09 02:18:44;;;;;;;8.27;4.23;;;;;;;15.10;54.32;102068.81;6123205;23;20154;-59
2021/09/09 02:21:11;;;;;;;8.93;4.03;;;;;;;15.07;54.94;102072.47;6122684;23;20175;-58
2021/09/09 02:23:36;;;;;;;9.67;4.40;;;;;;;15.01;54.69;102066.59;6122977;23;20163;-58
2021/09/09 02:26:03;;;;;;;6.57;3.83;;;;;;;14.87;55.05;102066.09;6122856;23;20629;-58
2021/09/09 02:28:28;;;;;;;7.23;4.30;;;;;;;14.68;55.12;102062.03;6122799;23;20156;-58
2021/09/09 02:30:54;;;;;;;11.90;4.53;;;;;;;14.59;55.66;102053.44;6122616;23;20626;-58
2021/09/09 02:33:19;;;;;;;8.10;4.30;;;;;;;14.57;55.80;102069.81;6122983;23;20617;-58
2021/09/09 02:35:45;;;;;;;10.00;4.13;;;;;;;14.55;55.86;102063.84;6122655;23;20156;-59
2021/09/09 02:38:10;;;;;;;9.43;4.73;;;;;;;14.46;56.50;102066.44;6123132;23;20160;-58
2021/09/09 02:40:36;;;;;;;7.63;4.50;;;;;;;14.45;56.34;102064.06;6122030;23;20215;-59
2021/09/09 02:43:01;;;;;;;6.63;3.73;;;;;;;14.37;56.83;102066.16;6123365;23;20165;-59
2021/09/09 02:45:27;;;;;;;8.90;4.37;;;;;;;14.35;56.70;102059.44;6122963;23;20209;-59
2021/09/09 02:47:52;;;;;;;9.13;4.30;;;;;;;14.34;56.79;102069.78;6122988;23;20151;-58
2021/09/09 02:50:18;;;;;;;7.60;4.27;;;;;;;14.12;56.79;102039.84;6122305;23;20155;-60
2021/09/09 02:52:43;;;;;;;7.43;4.30;;;;;;;14.06;56.67;102042.34;6123005;23;20181;-58
2021/09/09 02:55:10;;;;;;;7.50;4.00;;;;;;;14.22;56.59;102069.59;6122776;23;20554;-59
2021/09/09 02:57:36;;;;;;;10.10;4.03;;;;;;;14.22;56.71;102069.59;6122935;23;20182;-58
2021/09/09 03:00:04;;;;;;;6.83;4.03;;;;;;;13.81;57.17;102019.66;6122662;23;20612;-59
2021/09/09 03:02:29;;;;;;;9.37;4.23;;;;;;;14.04;57.29;102055.91;6123165;23;20530;-58
2021/09/09 03:04:54;;;;;;;6.30;4.47;;;;;;;14.12;57.38;102078.88;6124944;23;20159;-58
2021/09/09 03:07:20;;;;;;;18.70;5.03;;;;;;;13.93;57.38;102051.72;6124776;23;20155;-58
2021/09/09 03:09:46;;;;;;;17.17;6.00;;;;;;;14.07;57.59;102073.78;6124261;23;20599;-58
2021/09/09 03:12:11;;;;;;;10.97;5.10;;;;;;;14.06;57.40;102080.56;6124730;23;20183;-58
2021/09/09 03:14:36;;;;;;;10.40;4.60;;;;;;;13.98;57.73;102076.34;6124432;23;20154;-58
2021/09/09 03:17:02;;;;;;;15.10;4.83;;;;;;;13.94;57.88;102078.38;6124858;23;20174;-58
2021/09/09 03:19:28;;;;;;;8.43;4.83;;;;;;;13.93;57.74;102074.03;6124617;23;20163;-57
2021/09/09 03:21:53;;;;;;;10.03;4.83;;;;;;;13.83;58.04;102069.38;6124473;23;20181;-58
2021/09/09 03:24:19;;;;;;;9.77;4.70;;;;;;;13.85;58.05;102075.31;6124679;23;20206;-58
2021/09/09 03:26:45;;;;;;;11.47;4.90;;;;;;;13.41;58.09;102026.19;6124361;23;20163;-59
2021/09/09 03:29:10;;;;;;;8.50;4.60;;;;;;;13.73;58.08;102081.47;6124899;23;20508;-58
2021/09/09 03:31:36;;;;;;;12.63;5.03;;;;;;;13.33;58.11;102015.56;6123941;23;20150;-58
2021/09/09 03:34:01;;;;;;;14.27;5.03;;;;;;;13.62;58.47;102073.25;6124725;23;20155;-58
2021/09/09 03:36:27;;;;;;;8.87;4.70;;;;;;;13.63;58.45;102076.81;6124615;23;20158;-58
2021/09/09 03:38:53;;;;;;;10.17;4.60;;;;;;;13.48;58.60;102050.38;6124110;23;20249;-59
2021/09/09 03:41:19;;;;;;;13.43;4.80;;;;;;;13.66;58.42;102075.97;6123821;23;20722;-58
2021/09/09 03:43:44;;;;;;;11.10;4.70;;;;;;;13.56;58.26;102055.41;6124665;23;20162;-59
2021/09/09 03:46:10;;;;;;;12.10;4.37;;;;;;;13.70;57.88;102079.50;6124774;23;20619;-58
2021/09/09 03:48:35;;;;;;;8.97;4.33;;;;;;;13.66;57.69;102084.31;6124469;23;20159;-58
2021/09/09 03:51:01;;;;;;;13.00;4.00;;;;;;;13.63;57.48;102072.03;6124215;23;20256;-58
2021/09/09 03:53:26;;;;;;;7.93;4.00;;;;;;;13.57;57.82;102075.72;6124183;23;20151;-58
2021/09/09 03:55:52;;;;;;;9.50;3.97;;;;;;;13.57;57.87;102078.50;6122763;23;20567;-58
2021/09/09 03:58:17;;;;;;;13.30;4.57;;;;;;;13.53;58.30;102081.31;6123158;23;20169;-59
2021/09/09 04:00:43;;;;;;;11.03;4.80;;;;;;;13.60;58.39;102091.56;6124236;23;20185;-58
2021/09/09 04:03:08;;;;;;;11.03;4.33;;;;;;;13.61;58.56;102098.72;6122931;23;20161;-58
2021/09/09 04:05:34;;;;;;;11.17;4.53;;;;;;;13.15;58.80;102021.34;6124244;23;20677;-58
2021/09/09 04:07:59;;;;;;;11.70;4.60;;;;;;;13.68;58.39;102104.22;6124494;23;20181;-58
2021/09/09 04:10:25;;;;;;;12.50;4.13;;;;;;;13.72;58.52;102108.53;6123488;23;20182;-58
2021/09/09 04:12:51;;;;;;;8.47;4.67;;;;;;;13.56;58.37;102090.81;6124274;23;20166;-58
2021/09/09 04:15:16;;;;;;;13.67;5.83;;;;;;;13.74;58.32;102102.53;6123436;23;20338;-59
2021/09/09 04:17:42;;;;;;;15.87;4.93;;;;;;;13.79;58.43;102105.63;6122564;23;20198;-59
2021/09/09 04:20:08;;;;;;;13.80;4.63;;;;;;;13.83;58.05;102100.81;6124314;23;20154;-59
2021/09/09 04:22:35;;;;;;;8.83;4.73;;;;;;;13.85;57.92;102101.19;6123739;23;20187;-58
2021/09/09 04:25:02;;;;;;;10.67;4.20;;;;;;;13.90;57.61;102105.50;6119316;23;20159;-58
2021/09/09 04:27:30;;;;;;;14.70;4.67;;;;;;;13.89;57.89;102121.41;6123235;23;20500;-58
2021/09/09 04:29:56;;;;;;;17.17;4.40;;;;;;;13.87;57.56;102118.28;6123408;23;20229;-58
2021/09/09 04:32:22;;;;;;;9.57;4.90;;;;;;;13.61;57.13;102079.22;6123576;23;20150;-58
2021/09/09 04:34:47;;;;;;;11.67;5.10;;;;;;;13.33;57.32;102024.69;6123679;23;20640;-58
2021/09/09 04:37:13;;;;;;;14.27;4.60;;;;;;;13.77;57.34;102091.34;6124204;23;20686;-58
2021/09/09 04:39:38;;;;;;;14.67;6.83;;;;;;;13.76;57.31;102100.91;6118322;23;20208;-58
2021/09/09 04:42:04;;;;;;;12.23;5.20;;;;;;;14.00;57.34;102126.88;6120887;23;20576;-59
2021/09/09 04:44:29;;;;;;;23.77;13.53;;;;;;;14.09;57.19;102132.72;6122405;23;20226;-60
2021/09/09 04:46:55;;;;;;;19.40;9.60;;;;;;;14.13;57.16;102139.00;6123769;23;20190;-57
2021/09/09 04:49:20;;;;;;;17.47;10.73;;;;;;;14.09;57.56;102121.56;6123112;23;20177;-59
2021/09/09 04:51:46;;;;;;;21.13;9.53;;;;;;;14.22;57.63;102130.94;6121390;23;20487;-58
2021/09/09 04:54:11;;;;;;;16.43;7.03;;;;;;;14.29;57.79;102139.22;6105580;23;20198;-58
2021/09/09 04:56:37;;;;;;;7.40;2.60;;;;;;;16.09;58.69;102082.28;6110536;23;20160;-60
2021/09/09 04:59:03;;;;;;;19.80;4.70;;;;;;;17.69;53.21;102129.66;6116952;23;20157;-60
2021/09/09 05:01:28;;;;;;;9.37;4.93;;;;;;;18.22;49.76;102120.41;6112243;23;20178;-60
2021/09/09 05:03:54;;;;;;;18.03;4.67;;;;;;;18.81;50.22;102128.13;6114442;23;20198;-59
2021/09/09 05:06:19;;;;;;;8.17;3.97;;;;;;;19.27;51.24;102132.94;6118447;23;20165;-60
2021/09/09 05:08:45;;;;;;;11.50;4.10;;;;;;;18.66;48.99;102090.53;6120781;23;20158;-60
2021/09/09 05:11:11;;;;;;;8.57;3.73;;;;;;;19.30;47.38;102118.75;6115885;23;20151;-59
2021/09/09 05:13:38;;;;;;;9.57;3.97;;;;;;;19.01;45.30;102066.81;6113036;23;20161;-60
2021/09/09 05:16:05;;;;;;;8.37;3.77;;;;;;;19.54;45.30;102114.25;6093501;23;20726;-59
2021/09/09 05:18:30;;;;;;;8.83;3.53;;;;;;;19.81;44.18;102105.22;6102108;23;20597;-59
2021/09/09 05:20:56;;;;;;;11.10;3.83;;;;;;;19.26;44.12;102086.41;6116039;23;20161;-59
2021/09/09 05:23:22;;;;;;;13.87;4.13;;;;;;;19.52;43.08;102115.97;6112212;23;20585;-62
2021/09/09 05:25:47;;;;;;;10.17;3.50;;;;;;;19.56;44.46;102128.66;6109441;23;20156;-67
2021/09/09 05:28:13;;;;;;;10.40;3.90;;;;;;;19.51;44.27;102083.47;6115280;23;20660;-63
2021/09/09 05:30:38;;;;;;;9.30;3.50;;;;;;;19.82;44.46;102124.47;6098333;23;20717;-63
2021/09/09 05:33:04;;;;;;;11.40;3.70;;;;;;;20.03;43.56;102108.75;6115555;23;20169;-61
2021/09/09 05:35:29;;;;;;;12.57;4.10;;;;;;;20.64;42.61;102131.22;6109790;23;20159;-62
2021/09/09 05:37:55;;;;;;;12.23;3.70;;;;;;;20.55;42.23;102083.31;6104085;23;20227;-63
2021/09/09 05:40:20;;;;;;;10.50;3.70;;;;;;;20.97;41.53;102127.41;6106956;23;20213;-62
2021/09/09 05:42:47;;;;;;;11.37;4.00;;;;;;;21.25;41.49;102122.56;6107697;23;20229;-64
2021/09/09 05:45:12;;;;;;;9.17;3.83;;;;;;;21.33;40.96;102123.84;6114782;23;20167;-63
2021/09/09 05:47:38;;;;;;;8.73;3.90;;;;;;;21.35;40.72;102116.44;6116143;23;20613;-62
2021/09/09 05:50:04;;;;;;;7.07;4.63;;;;;;;21.41;40.27;102086.38;6104218;23;20158;-63
2021/09/09 05:52:30;;;;;;;12.87;4.27;;;;;;;21.40;40.42;102081.97;6112589;23;20157;-62
2021/09/09 05:54:55;;;;;;;11.97;4.33;;;;;;;21.52;40.61;102103.59;6114173;23;20158;-62
2021/09/09 05:57:21;;;;;;;12.00;4.80;;;;;;;21.70;40.26;102122.56;6110499;23;20710;-62
2021/09/09 05:59:46;;;;;;;10.30;4.43;;;;;;;21.76;40.00;102117.84;6115443;23;20155;-62
2021/09/09 06:02:16;;;;;;;17.73;5.37;;;;;;;21.47;40.01;102111.91;6116435;23;20528;-66
2021/09/09 06:04:42;;;;;;;26.43;6.10;;;;;;;21.09;40.91;102098.28;6109428;23;20247;-66
2021/09/09 06:07:09;;;;;;;26.03;5.80;;;;;;;20.94;41.26;102119.09;6109125;23;20183;-66
2021/09/09 06:09:34;;;;;;;25.73;5.70;;;;;;;20.88;41.98;102118.91;6111828;23;20173;-65
2021/09/09 06:12:00;;;;;;;16.43;5.63;;;;;;;21.26;41.22;102110.03;6114202;23;20238;-64
2021/09/09 06:14:26;;;;;;;17.03;4.77;;;;;;;21.38;40.90;102112.69;6108680;23;20158;-67
2021/09/09 06:16:51;;;;;;;13.30;4.73;;;;;;;21.06;41.07;102084.34;6112518;23;20181;-67
2021/09/09 06:19:17;;;;;;;19.13;5.37;;;;;;;21.26;40.39;102095.94;6115931;23;20489;-67
2021/09/09 06:21:42;;;;;;;9.90;4.70;;;;;;;21.44;40.34;102121.31;6117725;23;20291;-67
2021/09/09 06:24:08;;;;;;;13.03;4.50;;;;;;;21.70;39.79;102117.69;6119046;23;20565;-66
2021/09/09 06:26:34;;;;;;;9.40;4.10;;;;;;;21.32;40.17;102092.03;6118874;23;20155;-66
2021/09/09 06:29:00;;;;;;;12.87;5.20;;;;;;;20.45;40.01;102014.94;6111920;23;20162;-61
2021/09/09 06:31:25;;;;;;;11.17;5.27;;;;;;;20.64;41.43;102115.13;6121323;23;20225;-59
2021/09/09 06:33:51;;;;;;;15.83;5.33;;;;;;;20.03;41.19;102075.78;6107789;23;20162;-60
2021/09/09 06:36:17;;;;;;;10.97;4.80;;;;;;;19.97;42.25;102117.03;6118994;23;20169;-59
2021/09/09 06:38:43;;;;;;;12.37;4.63;;;;;;;19.74;43.10;102103.47;6120335;23;20159;-60
2021/09/09 06:41:08;;;;;;;11.83;4.67;;;;;;;19.49;43.45;102077.53;6117646;23;20186;-60
2021/09/09 06:43:34;;;;;;;13.07;5.10;;;;;;;19.42;44.33;102119.94;6103454;23;20538;-60
2021/09/09 06:45:59;;;;;;;13.53;4.80;;;;;;;19.31;44.63;102095.06;6114978;23;20264;-60
2021/09/09 06:48:25;;;;;;;12.07;4.63;;;;;;;19.18;45.08;102080.22;6118832;23;20213;-60
2021/09/09 06:50:50;;;;;;;7.67;4.40;;;;;;;19.12;45.64;102070.03;6120236;23;20257;-61
2021/09/09 06:53:16;;;;;;;13.27;4.90;;;;;;;19.39;45.76;102118.84;6119619;23;20256;-61
2021/09/09 06:55:41;;;;;;;8.73;4.47;;;;;;;19.44;45.23;102121.06;6120816;23;20559;-61
2021/09/09 06:58:07;;;;;;;12.33;5.73;;;;;;;19.53;44.97;102114.72;6121490;23;20284;-61
2021/09/09 07:00:32;;;;;;;14.87;5.60;;;;;;;19.50;44.35;102110.78;6119150;23;20190;-60
2021/09/09 07:02:58;;;;;;;9.73;5.00;;;;;;;19.39;44.38;102070.28;6119420;23;20189;-60
2021/09/09 07:05:23;;;;;;;12.93;5.17;;;;;;;19.78;43.96;102106.91;6114970;23;20221;-60
2021/09/09 07:07:49;;;;;;;10.13;4.80;;;;;;;19.82;43.77;102123.66;6119515;23;20667;-60
2021/09/09 07:10:14;;;;;;;14.20;5.00;;;;;;;19.85;44.34;102129.16;6120402;23;20668;-60
2021/09/09 07:12:40;;;;;;;18.53;6.10;;;;;;;19.84;44.61;102123.97;6120746;23;20174;-60
2021/09/09 07:15:06;;;;;;;16.10;6.07;;;;;;;19.27;44.72;102052.22;6116723;23;20220;-60
2021/09/09 07:17:31;;;;;;;12.50;5.37;;;;;;;19.41;44.78;102062.97;6120455;23;20635;-61
2021/09/09 07:19:57;;;;;;;11.33;5.70;;;;;;;19.68;45.07;102118.56;6120735;23;20154;-60
2021/09/09 07:22:22;;;;;;;13.93;5.83;;;;;;;19.14;45.16;102078.81;6120503;23;20535;-60
2021/09/09 07:24:48;;;;;;;19.20;6.50;;;;;;;19.27;45.25;102066.28;6119215;23;20159;-60
2021/09/09 07:27:13;;;;;;;10.30;5.47;;;;;;;19.67;45.28;102125.44;6119866;23;20165;-60
2021/09/09 07:29:39;;;;;;;14.67;6.30;;;;;;;19.66;44.81;102118.25;6120375;23;20150;-60
2021/09/09 07:32:05;;;;;;;14.27;6.37;;;;;;;19.47;45.30;102122.16;6120715;23;20652;-60
2021/09/09 07:34:30;;;;;;;11.40;6.87;;;;;;;19.51;45.64;102122.84;6118193;23;20154;-60
2021/09/09 07:36:56;;;;;;;15.40;7.13;;;;;;;19.19;45.41;102059.31;6119100;23;20677;-60
2021/09/09 07:39:23;;;;;;;15.60;7.30;;;;;;;19.63;45.61;102119.97;6119514;23;20623;-60
2021/09/09 07:41:49;;;;;;;14.43;6.77;;;;;;;19.42;45.83;102074.97;6120552;23;20209;-60
2021/09/09 07:44:15;;;;;;;12.53;6.57;;;;;;;19.72;46.05;102114.41;6117791;23;20191;-59
2021/09/09 07:46:40;;;;;;;14.70;6.80;;;;;;;19.83;46.02;102113.97;6118886;23;20167;-60
2021/09/09 07:49:06;;;;;;;14.87;6.30;;;;;;;20.00;45.93;102124.53;6120459;23;20892;-61
2021/09/09 07:51:31;;;;;;;11.10;6.47;;;;;;;19.87;46.00;102076.03;6122409;23;20147;-60
2021/09/09 07:53:57;;;;;;;18.30;6.20;;;;;;;20.30;45.77;102111.72;6120379;23;20611;-60
2021/09/09 07:56:23;;;;;;;15.13;6.10;;;;;;;20.45;45.53;102115.53;6118565;23;20261;-60
2021/09/09 07:58:49;;;;;;;17.63;6.40;;;;;;;20.64;45.01;102120.75;6121341;23;20237;-60
2021/09/09 08:01:20;;;;;;;18.80;6.63;;;;;;;20.62;45.14;102111.97;6117404;23;20186;-60
2021/09/09 08:03:46;;;;;;;19.47;6.10;;;;;;;20.38;45.44;102051.84;6118790;23;20153;-61
2021/09/09 08:06:13;;;;;;;14.87;5.70;;;;;;;21.02;44.96;102111.91;6116753;23;20242;-61
2021/09/09 08:08:38;;;;;;;17.27;6.10;;;;;;;20.76;44.23;102051.41;6121153;23;20158;-61
2021/09/09 08:11:04;;;;;;;21.77;6.53;;;;;;;21.30;44.17;102105.03;6118645;23;20226;-59
2021/09/09 08:13:30;;;;;;;14.47;5.00;;;;;;;21.76;43.51;102109.38;6119999;23;20173;-60
2021/09/09 08:15:55;;;;;;;11.13;4.93;;;;;;;22.03;42.37;102104.44;6118734;23;20159;-61
2021/09/09 08:18:21;;;;;;;11.80;5.00;;;;;;;22.31;42.31;102105.09;6119691;23;20603;-62
2021/09/09 08:20:46;;;;;;;11.83;4.60;;;;;;;22.01;41.86;102044.06;6121498;23;20176;-63
2021/09/09 08:23:12;;;;;;;14.37;4.90;;;;;;;22.49;42.20;102100.16;6117042;23;20155;-63
2021/09/09 08:25:37;;;;;;;11.57;4.73;;;;;;;22.63;42.17;102105.09;6116787;23;20589;-61
2021/09/09 08:28:03;;;;;;;12.20;4.63;;;;;;;22.53;42.74;102088.69;6116887;23;20593;-60
2021/09/09 08:30:29;;;;;;;13.27;4.57;;;;;;;22.68;42.60;102100.84;6116944;23;20597;-61
2021/09/09 08:32:54;;;;;;;11.10;4.70;;;;;;;22.78;42.51;102100.28;6111594;23;20666;-60
2021/09/09 08:35:20;;;;;;;5.60;3.80;;;;;;;22.89;42.11;102094.09;6115104;23;20151;-60
2021/09/09 08:37:45;;;;;;;7.23;3.93;;;;;;;23.02;41.94;102103.88;6121113;23;20597;-60
2021/09/09 08:40:11;;;;;;;14.83;4.67;;;;;;;22.92;42.12;102076.16;6119652;23;20205;-60
2021/09/09 08:42:38;;;;;;;9.80;4.57;;;;;;;23.10;41.57;102053.38;6121047;23;20648;-60
2021/09/09 08:45:06;;;;;;;11.77;4.03;;;;;;;23.55;41.25;102092.59;6119660;23;20586;-62
2021/09/09 08:47:33;;;;;;;11.97;4.10;;;;;;;23.69;40.99;102086.16;6121221;23;20162;-59
2021/09/09 08:49:59;;;;;;;8.50;3.73;;;;;;;23.77;41.38;102085.28;6120099;23;20192;-62
2021/09/09 08:52:25;;;;;;;12.80;3.47;;;;;;;23.93;41.25;102087.63;6119066;23;20154;-61
2021/09/09 08:54:50;;;;;;;10.27;3.00;;;;;;;23.79;41.02;102082.72;6119156;23;20605;-60
2021/09/09 08:57:22;;;;;;;7.23;3.10;;;;;;;24.17;40.29;102079.00;6117471;23;20242;-61
2021/09/09 08:59:48;;;;;;;6.47;3.33;;;;;;;23.79;41.38;102057.25;6115935;23;20229;-61
2021/09/09 09:02:14;;;;;;;9.23;3.63;;;;;;;24.04;39.81;102065.16;6119426;23;20667;-60
2021/09/09 09:04:39;;;;;;;11.63;3.60;;;;;;;24.49;39.75;102075.06;6114837;23;20216;-60
2021/09/09 09:07:08;;;;;;;13.30;3.30;;;;;;;24.89;39.04;102070.25;6121710;23;20150;-63
2021/09/09 09:09:36;;;;;;;7.53;3.07;;;;;;;25.17;38.72;102082.69;6122126;23;20201;-63
2021/09/09 09:12:10;;;;;;;8.77;3.23;;;;;;;25.32;37.93;102074.09;6122383;23;20233;-60
2021/09/09 09:14:36;;;;;;;9.50;2.90;;;;;;;25.44;37.81;102070.88;6120073;23;20164;-61
2021/09/09 09:17:06;;;;;;;7.83;2.50;;;;;;;25.36;38.36;102060.47;6118857;23;20154;-61
2021/09/09 09:19:38;;;;;;;9.37;2.60;;;;;;;25.57;37.78;102059.13;6118100;23;20552;-60
2021/09/09 09:22:12;;;;;;;7.17;2.70;;;;;;;25.55;37.79;102064.53;6118474;23;20170;-60
2021/09/09 09:24:49;;;;;;;7.43;2.57;;;;;;;25.47;37.13;102049.22;6117431;23;20549;-60
2021/09/09 09:27:17;;;;;;;11.67;3.10;;;;;;;25.07;38.20;102007.53;6119376;23;20170;-59
2021/09/09 09:29:58;;;;;;;10.63;2.67;;;;;;;25.24;38.52;102011.31;6120500;23;20158;-60
2021/09/09 09:32:24;;;;;;;9.23;2.27;;;;;;;25.09;38.51;102009.88;6119630;23;20481;-60
2021/09/09 09:34:49;;;;;;;6.53;2.80;;;;;;;25.17;38.66;102048.63;6112407;23;20151;-60
2021/09/09 09:37:22;;;;;;;8.60;2.70;;;;;;;25.28;38.35;102042.34;6117991;23;20229;-59
2021/09/09 09:39:48;;;;;;;4.93;2.37;;;;;;;25.38;37.96;102038.81;6118649;23;20198;-60
2021/09/09 09:42:14;;;;;;;7.90;2.43;;;;;;;25.65;37.43;102007.06;6119492;23;20645;-60
2021/09/09 09:44:47;;;;;;;5.60;2.13;;;;;;;25.84;36.93;102030.97;6119764;23;20154;-60
2021/09/09 09:47:13;;;;;;;7.00;2.30;;;;;;;25.97;36.63;102024.88;6120370;23;20625;-61
2021/09/09 09:49:42;;;;;;;9.37;2.50;;;;;;;26.00;36.70;102024.66;6120245;23;20233;-61
2021/09/09 09:52:13;;;;;;;7.30;2.40;;;;;;;25.91;36.15;102009.84;6110113;23;20511;-60
2021/09/09 09:54:48;;;;;;;10.87;2.60;;;;;;;25.82;36.63;102025.03;6116186;23;20191;-60
2021/09/09 09:57:14;;;;;;;7.67;3.00;;;;;;;25.39;37.14;102023.34;6118210;23;20213;-62
2021/09/09 09:59:39;;;;;;;7.87;2.13;;;;;;;25.68;37.01;102008.91;6109060;23;20652;-61
2021/09/09 10:02:05;;;;;;;7.30;2.57;;;;;;;26.04;36.68;101996.00;6111322;23;20592;-62
2021/09/09 10:04:31;;;;;;;6.47;1.87;;;;;;;26.02;35.90;101962.44;6106499;23;20154;-59
2021/09/09 10:06:57;;;;;;;4.93;1.50;;;;;;;26.23;34.98;102002.84;6110189;23;20563;-61
2021/09/09 10:09:23;;;;;;;5.97;1.40;;;;;;;25.82;34.95;101958.91;6101012;23;20257;-60
2021/09/09 10:11:49;;;;;;;6.97;1.80;;;;;;;25.87;35.25;101975.22;6111389;23;20159;-59
2021/09/09 10:14:18;;;;;;;5.03;1.60;;;;;;;25.64;34.82;101999.81;6115002;23;20213;-60
2021/09/09 10:16:45;;;;;;;6.90;1.70;;;;;;;26.00;34.80;101976.34;6113679;23;20186;-60
2021/09/09 10:19:12;;;;;;;3.00;1.63;;;;;;;25.73;34.52;101974.09;6111392;23;20161;-61
2021/09/09 10:21:46;;;;;;;5.50;1.90;;;;;;;25.86;35.48;101985.81;6115792;23;20179;-60
2021/09/09 10:24:20;;;;;;;5.00;1.60;;;;;;;26.33;34.80;101970.88;6112552;23;20157;-59
2021/09/09 10:26:50;;;;;;;4.67;1.43;;;;;;;26.40;34.18;101939.09;6114203;23;20216;-60
2021/09/09 10:29:42;;;;;;;3.77;1.40;;;;;;;26.93;33.95;101983.78;6115104;23;20238;-60
2021/09/09 10:32:28;;;;;;;4.70;1.90;;;;;;;26.94;32.94;101971.09;6104435;23;20196;-59
2021/09/09 10:35:12;;;;;;;4.63;1.70;;;;;;;27.17;32.26;101964.94;6108286;23;20169;-61
2021/09/09 10:37:38;;;;;;;6.35;1.60;;;;;;;26.89;32.77;101918.59;6116832;23;20150;-62
2021/09/09 10:40:04;;;;;;;4.43;1.77;;;;;;;27.25;32.47;101959.53;6117599;23;20913;-61
2021/09/09 10:42:37;;;;;;;4.53;1.70;;;;;;;27.70;31.63;101963.91;6119135;23;20186;-61
2021/09/09 10:45:04;;;;;;;4.82;1.92;;;;;;;27.73;31.96;101968.59;6118444;23;20168;-61
2021/09/09 10:47:30;;;;;;;8.88;1.67;;;;;;;28.03;30.87;101958.16;6119153;23;20556;-62
2021/09/09 10:50:05;;;;;;;5.43;1.60;;;;;;;28.10;30.22;101963.34;6117305;23;20151;-61
2021/09/09 10:52:53;;;;;;;4.55;1.70;;;;;;;28.07;30.25;101955.84;6111966;23;20694;-61
2021/09/09 10:55:26;;;;;;;5.13;1.63;;;;;;;27.90;30.62;101926.63;6115404;23;20190;-61
2021/09/09 10:58:10;;;;;;;3.70;1.50;;;;;;;27.64;30.77;101966.00;6116772;23;20221;-61
2021/09/09 11:00:54;;;;;;;4.53;1.30;;;;;;;27.59;31.80;101963.94;6113281;23;20155;-61
2021/09/09 11:03:39;;;;;;;5.20;1.70;;;;;;;27.38;32.25;101956.97;6108849;23;20173;-62
2021/09/09 11:06:25;;;;;;;5.83;2.00;;;;;;;27.09;33.29;101949.66;6120121;23;20186;-62
2021/09/09 11:08:54;;;;;;;4.10;1.87;;;;;;;26.93;33.78;101939.00;6118062;23;20593;-63
2021/09/09 11:11:21;;;;;;;6.03;1.70;;;;;;;27.13;35.05;101943.72;6116907;23;20151;-62
2021/09/09 11:14:02;;;;;;;7.67;1.93;;;;;;;27.28;33.15;101939.34;6116593;23;20174;-62
2021/09/09 11:16:35;;;;;;;5.63;1.83;;;;;;;27.45;32.35;101927.94;6119312;23;20142;-62
2021/09/09 11:19:02;;;;;;;6.07;1.97;;;;;;;27.48;32.73;101930.53;6118912;23;20488;-62
2021/09/09 11:21:35;;;;;;;5.67;1.80;;;;;;;27.53;32.32;101937.53;6119744;23;20261;-62